createdAt,value
2022-08-25T00:00:17.363Z,17.30
2022-08-25T00:02:55.613Z,17.30
2022-08-25T00:05:29.254Z,17.30
2022-08-25T00:08:00.139Z,17.30
2022-08-25T00:10:28.778Z,17.20
2022-08-25T00:12:55.667Z,17.20
2022-08-25T00:15:23.094Z,17.10
2022-08-25T00:17:50.475Z,17.10
2022-08-25T00:20:18.194Z,17.10
2022-08-25T00:22:45.498Z,17.00
2022-08-25T00:25:12.766Z,17.00
2022-08-25T00:27:39.963Z,17.00
2022-08-25T00:30:07.452Z,17.00
2022-08-25T00:32:34.319Z,17.00
2022-08-25T00:35:01.790Z,16.90
2022-08-25T00:37:28.929Z,16.90
2022-08-25T00:39:59.114Z,17.00
2022-08-25T00:42:26.746Z,16.90
2022-08-25T00:44:54.041Z,17.00
2022-08-25T00:47:20.901Z,16.90
2022-08-25T00:50:00.116Z,16.80
2022-08-25T00:52:36.653Z,16.80
2022-08-25T00:55:14.109Z,16.70
2022-08-25T00:57:46.746Z,16.70
2022-08-25T01:00:16.466Z,16.70
2022-08-25T01:02:43.392Z,16.60
2022-08-25T01:05:10.463Z,16.60
2022-08-25T01:07:39.312Z,16.60
2022-08-25T01:10:18.625Z,16.50
2022-08-25T01:12:47.149Z,16.60
2022-08-25T01:15:20.817Z,16.60
2022-08-25T01:17:49.616Z,16.40
2022-08-25T01:20:19.032Z,16.60
2022-08-25T01:22:50.889Z,16.50
2022-08-25T01:25:49.084Z,16.60
2022-08-25T01:28:18.759Z,16.50
2022-08-25T01:30:46.169Z,16.50
2022-08-25T01:33:13.887Z,16.40
2022-08-25T01:35:41.389Z,16.40
2022-08-25T01:38:09.899Z,16.40
2022-08-25T01:40:40.075Z,16.40
2022-08-25T01:43:14.658Z,16.40
2022-08-25T01:45:51.348Z,16.40
2022-08-25T01:48:21.223Z,16.40
2022-08-25T01:50:49.937Z,16.40
2022-08-25T01:53:33.365Z,16.40
2022-08-25T01:56:17.086Z,16.30
2022-08-25T01:58:48.751Z,16.30
2022-08-25T02:01:23.393Z,16.30
2022-08-25T02:03:53.457Z,16.30
2022-08-25T02:06:29.794Z,16.30
2022-08-25T02:09:05.326Z,16.30
2022-08-25T02:11:35.224Z,16.30
2022-08-25T02:14:03.059Z,16.30
2022-08-25T02:16:34.435Z,16.30
2022-08-25T02:19:02.379Z,16.30
2022-08-25T02:21:31.420Z,16.20
2022-08-25T02:23:59.028Z,16.20
2022-08-25T02:26:27.679Z,16.40
2022-08-25T02:28:54.516Z,16.20
2022-08-25T02:31:23.279Z,16.10
2022-08-25T02:33:50.958Z,16.10
2022-08-25T02:36:18.414Z,16.10
2022-08-25T02:38:45.740Z,16.10
2022-08-25T02:41:16.119Z,15.90
2022-08-25T02:43:43.526Z,15.90
2022-08-25T02:46:11.880Z,15.90
2022-08-25T02:48:39.914Z,15.80
2022-08-25T02:51:08.859Z,15.90
2022-08-25T02:53:41.261Z,15.90
2022-08-25T02:56:10.168Z,15.90
2022-08-25T02:58:39.064Z,15.90
2022-08-25T03:01:07.399Z,15.80
2022-08-25T03:03:39.513Z,15.80
2022-08-25T03:06:10.140Z,15.80
2022-08-25T03:08:37.640Z,15.80
2022-08-25T03:11:05.877Z,15.80
2022-08-25T03:13:32.873Z,15.80
2022-08-25T03:16:01.533Z,15.80
2022-08-25T03:18:30.338Z,15.80
2022-08-25T03:21:00.256Z,15.80
2022-08-25T03:23:27.159Z,15.70
2022-08-25T03:26:13.855Z,15.70
2022-08-25T03:28:46.115Z,15.70
2022-08-25T03:31:13.396Z,15.70
2022-08-25T03:33:40.480Z,15.60
2022-08-25T03:36:09.053Z,15.60
2022-08-25T03:38:38.458Z,15.60
2022-08-25T03:41:35.444Z,15.60
2022-08-25T03:44:04.449Z,15.60
2022-08-25T03:46:39.784Z,15.60
2022-08-25T03:49:10.585Z,15.60
2022-08-25T03:51:41.749Z,15.60
2022-08-25T03:54:10.540Z,15.60
2022-08-25T03:56:38.485Z,15.60
2022-08-25T03:59:06.135Z,15.60
2022-08-25T04:01:33.078Z,15.60
2022-08-25T04:03:59.952Z,15.60
2022-08-25T04:06:28.671Z,15.50
2022-08-25T04:08:59.362Z,15.50
2022-08-25T04:11:29.619Z,15.50
2022-08-25T04:13:59.218Z,15.50
2022-08-25T04:16:31.612Z,15.50
2022-08-25T04:19:00.698Z,15.40
2022-08-25T04:21:28.001Z,15.40
2022-08-25T04:23:57.224Z,15.40
2022-08-25T04:26:33.492Z,15.40
2022-08-25T04:29:03.759Z,15.40
2022-08-25T04:31:31.837Z,15.40
2022-08-25T04:34:01.428Z,15.40
2022-08-25T04:36:29.407Z,15.40
2022-08-25T04:38:56.757Z,15.40
2022-08-25T04:41:24.613Z,15.50
2022-08-25T04:43:52.882Z,15.40
2022-08-25T04:46:24.996Z,15.50
2022-08-25T04:48:54.020Z,15.50
2022-08-25T04:51:24.964Z,15.50
2022-08-25T04:53:52.438Z,15.50
2022-08-25T04:56:22.124Z,15.50
2022-08-25T04:58:48.941Z,15.60
2022-08-25T05:01:18.994Z,15.50
2022-08-25T05:03:54.583Z,15.70
2022-08-25T05:06:21.956Z,15.70
2022-08-25T05:08:49.755Z,15.80
2022-08-25T05:11:18.409Z,15.80
2022-08-25T05:13:51.627Z,15.80
2022-08-25T05:16:23.280Z,15.90
2022-08-25T05:18:51.110Z,15.90
2022-08-25T05:21:22.387Z,15.80
2022-08-25T05:23:50.347Z,16.00
2022-08-25T05:26:24.594Z,16.10
2022-08-25T05:28:55.444Z,16.10
2022-08-25T05:31:25.066Z,16.10
2022-08-25T05:33:53.184Z,16.20
2022-08-25T05:36:21.620Z,16.20
2022-08-25T05:38:48.954Z,16.20
2022-08-25T05:41:23.168Z,16.30
2022-08-25T05:43:50.868Z,16.40
2022-08-25T05:46:22.724Z,16.50
2022-08-25T05:48:50.579Z,16.50
2022-08-25T05:51:20.858Z,16.60
2022-08-25T05:53:49.958Z,16.70
2022-08-25T05:56:18.044Z,16.90
2022-08-25T05:58:45.725Z,16.90
2022-08-25T06:01:39.516Z,17.00
2022-08-25T06:04:06.617Z,17.10
2022-08-25T06:06:33.616Z,17.20
2022-08-25T06:09:04.917Z,17.30
2022-08-25T06:11:31.760Z,17.40
2022-08-25T06:13:58.618Z,17.50
2022-08-25T06:16:25.548Z,17.60
2022-08-25T06:18:56.852Z,17.70
2022-08-25T06:21:25.030Z,17.80
2022-08-25T06:23:53.520Z,18.00
2022-08-25T06:26:21.333Z,18.10
2022-08-25T06:28:50.745Z,18.20
2022-08-25T06:31:20.446Z,18.30
2022-08-25T06:33:47.870Z,18.40
2022-08-25T06:36:15.523Z,18.40
2022-08-25T06:38:42.634Z,18.50
2022-08-25T06:41:10.995Z,18.60
2022-08-25T06:43:41.635Z,18.70
2022-08-25T06:46:13.016Z,18.80
2022-08-25T06:48:40.610Z,18.80
2022-08-25T06:51:15.193Z,18.90
2022-08-25T06:53:45.075Z,19.00
2022-08-25T06:56:12.782Z,19.00
2022-08-25T06:58:41.271Z,19.00
2022-08-25T07:01:29.953Z,19.20
2022-08-25T07:04:00.979Z,19.30
2022-08-25T07:06:32.549Z,19.40
2022-08-25T07:09:01.625Z,19.40
2022-08-25T07:11:29.437Z,19.50
2022-08-25T07:13:57.463Z,19.60
2022-08-25T07:16:27.991Z,19.60
2022-08-25T07:18:58.315Z,19.70
2022-08-25T07:21:32.668Z,19.70
2022-08-25T07:24:02.384Z,19.80
2022-08-25T07:26:37.671Z,19.90
2022-08-25T07:29:15.452Z,20.00
2022-08-25T07:31:42.943Z,20.20
2022-08-25T07:34:28.689Z,20.20
2022-08-25T07:36:57.287Z,20.30
2022-08-25T07:39:26.088Z,20.40
2022-08-25T07:41:53.804Z,20.40
2022-08-25T07:44:22.893Z,20.40
2022-08-25T07:46:51.044Z,20.60
2022-08-25T07:49:23.123Z,20.60
2022-08-25T07:52:05.215Z,20.70
2022-08-25T07:54:35.282Z,20.70
2022-08-25T07:57:07.882Z,20.80
2022-08-25T07:59:40.079Z,20.90
2022-08-25T08:02:18.260Z,21.00
2022-08-25T08:04:51.671Z,21.10
2022-08-25T08:07:20.471Z,21.20
2022-08-25T08:09:55.817Z,21.30
2022-08-25T08:12:24.496Z,21.40
2022-08-25T08:14:52.353Z,21.30
2022-08-25T08:17:19.986Z,21.40
2022-08-25T08:19:48.019Z,21.60
2022-08-25T08:22:15.757Z,21.60
2022-08-25T08:24:54.943Z,21.70
2022-08-25T08:27:24.317Z,21.80
2022-08-25T08:29:51.280Z,21.90
2022-08-25T08:32:18.613Z,22.00
2022-08-25T08:34:51.109Z,22.10
2022-08-25T08:37:20.367Z,22.10
2022-08-25T08:39:51.311Z,22.20
2022-08-25T08:42:46.984Z,22.30
2022-08-25T08:45:22.767Z,22.30
2022-08-25T08:48:21.448Z,22.50
2022-08-25T08:51:44.589Z,22.60
2022-08-25T08:54:18.757Z,22.60
2022-08-25T08:56:50.656Z,22.60
2022-08-25T08:59:21.682Z,22.60
2022-08-25T09:01:56.479Z,22.60
2022-08-25T09:04:33.762Z,22.80
2022-08-25T09:07:04.322Z,22.90
2022-08-25T09:09:35.823Z,23.00
2022-08-25T09:12:21.160Z,23.00
2022-08-25T09:15:16.671Z,23.20
2022-08-25T09:18:09.630Z,23.30
2022-08-25T09:20:44.926Z,23.30
2022-08-25T09:23:33.316Z,23.30
2022-08-25T09:26:15.808Z,23.40
2022-08-25T09:28:53.239Z,23.40
2022-08-25T09:31:26.452Z,23.40
2022-08-25T09:33:58.109Z,23.50
2022-08-25T09:36:25.562Z,23.70
2022-08-25T09:38:52.562Z,23.90
2022-08-25T09:41:48.047Z,24.00
2022-08-25T09:44:26.017Z,24.10
2022-08-25T09:47:04.859Z,24.10
2022-08-25T09:49:36.091Z,24.10
2022-08-25T09:52:19.088Z,24.20
2022-08-25T09:54:47.772Z,24.30
2022-08-25T09:57:43.483Z,24.40
2022-08-25T10:00:25.093Z,24.50
2022-08-25T10:03:08.157Z,24.60
2022-08-25T10:05:59.035Z,24.80
2022-08-25T10:08:46.010Z,24.80
2022-08-25T10:11:28.981Z,25.00
2022-08-25T10:14:33.861Z,25.20
2022-08-25T10:17:24.732Z,25.30
2022-08-25T10:20:13.304Z,25.40
2022-08-25T10:22:42.381Z,25.40
2022-08-25T10:25:14.891Z,25.50
2022-08-25T10:27:58.472Z,25.50
2022-08-25T10:30:34.404Z,25.50
2022-08-25T10:33:19.310Z,25.60
2022-08-25T10:35:49.137Z,25.70
2022-08-25T10:38:46.096Z,25.50
2022-08-25T10:41:32.693Z,25.40
2022-08-25T10:44:45.810Z,25.40
2022-08-25T10:47:40.876Z,25.40
2022-08-25T10:50:29.373Z,25.70
2022-08-25T10:53:10.596Z,25.70
2022-08-25T10:55:48.614Z,25.90
2022-08-25T10:58:37.435Z,26.20
2022-08-25T11:01:10.148Z,26.20
2022-08-25T11:03:47.400Z,26.00
2022-08-25T11:06:20.331Z,25.90
2022-08-25T11:09:03.499Z,25.80
2022-08-25T11:11:55.386Z,25.90
2022-08-25T11:14:50.997Z,25.80
2022-08-25T11:17:38.099Z,25.70
2022-08-25T11:20:15.254Z,25.80
2022-08-25T11:23:25.158Z,26.00
2022-08-25T11:25:55.859Z,26.20
2022-08-25T11:28:43.501Z,26.40
2022-08-25T11:31:11.440Z,26.60
2022-08-25T11:33:39.446Z,26.80
2022-08-25T11:36:32.188Z,26.90
2022-08-25T11:39:09.831Z,26.90
2022-08-25T11:42:02.088Z,27.00
2022-08-25T11:44:51.867Z,27.10
2022-08-25T11:47:38.761Z,27.30
2022-08-25T11:50:30.117Z,27.40
2022-08-25T11:53:37.846Z,27.50
2022-08-25T11:56:08.996Z,27.50
2022-08-25T11:58:41.027Z,27.50
2022-08-25T12:01:30.888Z,27.60
2022-08-25T12:04:31.106Z,27.70
2022-08-25T12:07:07.315Z,27.70
2022-08-25T12:09:51.882Z,27.80
2022-08-25T12:12:37.733Z,28.00
2022-08-25T12:15:53.443Z,28.10
2022-08-25T12:18:22.864Z,27.90
2022-08-25T12:20:56.386Z,27.90
2022-08-25T12:23:45.322Z,28.10
2022-08-25T12:26:21.253Z,28.10
2022-08-25T12:29:02.959Z,28.10
2022-08-25T12:31:51.808Z,28.10
2022-08-25T12:34:32.041Z,28.20
2022-08-25T12:37:23.416Z,28.40
2022-08-25T12:39:50.158Z,28.60
2022-08-25T12:42:29.491Z,28.70
2022-08-25T12:45:24.538Z,28.70
2022-08-25T12:47:54.605Z,28.80
2022-08-25T12:50:48.085Z,28.80
2022-08-25T12:53:36.244Z,29.00
2022-08-25T12:56:08.061Z,28.80
2022-08-25T12:59:00.844Z,28.50
2022-08-25T13:01:28.234Z,28.20
2022-08-25T13:04:30.875Z,28.00
2022-08-25T13:07:21.925Z,27.90
2022-08-25T13:10:13.563Z,27.80
2022-08-25T13:12:48.171Z,27.80
2022-08-25T13:15:25.503Z,27.90
2022-08-25T13:18:02.485Z,27.80
2022-08-25T13:20:30.852Z,27.80
2022-08-25T13:23:00.682Z,27.80
2022-08-25T13:25:32.096Z,27.90
2022-08-25T13:28:02.985Z,28.00
2022-08-25T13:30:37.022Z,28.00
2022-08-25T13:33:21.946Z,27.90
2022-08-25T13:36:18.170Z,27.80
2022-08-25T13:38:47.632Z,27.70
2022-08-25T13:41:29.602Z,27.70
2022-08-25T13:43:59.034Z,27.80
2022-08-25T13:46:28.022Z,27.90
2022-08-25T13:49:05.229Z,28.10
2022-08-25T13:51:33.130Z,28.20
2022-08-25T13:54:03.306Z,28.30
2022-08-25T13:56:41.617Z,28.40
2022-08-25T13:59:40.225Z,28.40
2022-08-25T14:02:15.278Z,28.60
2022-08-25T14:04:51.493Z,28.60
2022-08-25T14:07:22.842Z,28.80
2022-08-25T14:09:55.345Z,29.00
2022-08-25T14:12:33.551Z,29.10
2022-08-25T14:15:01.731Z,29.30
2022-08-25T14:17:39.108Z,29.30
2022-08-25T14:20:17.095Z,29.40
2022-08-25T14:22:43.956Z,29.50
2022-08-25T14:25:11.372Z,29.30
2022-08-25T14:28:03.660Z,29.20
2022-08-25T14:30:33.301Z,29.20
2022-08-25T14:33:02.289Z,29.40
2022-08-25T14:35:29.549Z,29.30
2022-08-25T14:37:58.644Z,29.30
2022-08-25T14:40:25.430Z,29.30
2022-08-25T14:42:52.264Z,29.20
2022-08-25T14:45:19.360Z,29.20
2022-08-25T14:47:49.848Z,29.10
2022-08-25T14:50:20.106Z,29.10
2022-08-25T14:52:48.233Z,29.00
2022-08-25T14:55:31.247Z,29.00
2022-08-25T14:57:58.955Z,29.10
2022-08-25T15:00:26.228Z,29.10
2022-08-25T15:02:53.540Z,28.90
2022-08-25T15:05:27.164Z,28.80
2022-08-25T15:08:14.442Z,28.90
2022-08-25T15:10:42.164Z,28.90
2022-08-25T15:13:10.780Z,28.80
2022-08-25T15:15:52.627Z,28.80
2022-08-25T15:18:21.102Z,28.70
2022-08-25T15:20:50.094Z,28.70
2022-08-25T15:23:18.500Z,28.70
2022-08-25T15:25:47.409Z,28.60
2022-08-25T15:28:17.284Z,28.50
2022-08-25T15:30:45.735Z,28.40
2022-08-25T15:33:13.570Z,28.30
2022-08-25T15:35:41.446Z,28.20
2022-08-25T15:38:08.609Z,28.20
2022-08-25T15:40:37.580Z,28.20
2022-08-25T15:43:05.602Z,28.10
2022-08-25T15:45:35.754Z,28.20
2022-08-25T15:48:02.721Z,28.20
2022-08-25T15:50:30.443Z,28.10
2022-08-25T15:52:57.794Z,28.10
2022-08-25T15:55:25.066Z,28.20
2022-08-25T15:57:51.827Z,28.20
2022-08-25T16:00:19.438Z,28.20
2022-08-25T16:02:48.366Z,28.30
2022-08-25T16:05:16.484Z,28.30
2022-08-25T16:07:45.971Z,28.30
2022-08-25T16:10:13.575Z,28.20
2022-08-25T16:12:42.758Z,28.20
2022-08-25T16:15:12.104Z,28.20
2022-08-25T16:17:40.682Z,28.10
2022-08-25T16:20:13.879Z,28.00
2022-08-25T16:22:41.821Z,28.00
2022-08-25T16:25:10.641Z,27.90
2022-08-25T16:27:37.747Z,27.80
2022-08-25T16:30:08.072Z,27.70
2022-08-25T16:32:35.648Z,27.70
2022-08-25T16:35:03.456Z,27.60
2022-08-25T16:37:30.309Z,27.60
2022-08-25T16:39:57.517Z,27.60
2022-08-25T16:42:26.102Z,27.50
2022-08-25T16:44:54.131Z,27.50
2022-08-25T16:47:25.099Z,27.50
2022-08-25T16:49:54.165Z,27.40
2022-08-25T16:52:40.745Z,27.40
2022-08-25T16:55:14.189Z,27.30
2022-08-25T16:57:43.752Z,27.20
2022-08-25T17:00:13.801Z,27.00
2022-08-25T17:02:41.475Z,26.90
2022-08-25T17:05:11.244Z,26.80
2022-08-25T17:07:38.576Z,26.70
2022-08-25T17:10:07.394Z,26.70
2022-08-25T17:12:39.517Z,26.60
2022-08-25T17:15:07.585Z,26.60
2022-08-25T17:17:36.278Z,26.60
2022-08-25T17:20:04.720Z,26.70
2022-08-25T17:22:31.735Z,26.70
2022-08-25T17:25:00.934Z,26.70
2022-08-25T17:27:28.765Z,26.70
2022-08-25T17:29:55.836Z,26.70
2022-08-25T17:32:28.902Z,26.60
2022-08-25T17:34:57.807Z,26.50
2022-08-25T17:37:25.063Z,26.40
2022-08-25T17:40:02.426Z,26.40
2022-08-25T17:42:31.632Z,26.30
2022-08-25T17:44:58.639Z,26.20
2022-08-25T17:47:27.201Z,26.10
2022-08-25T17:49:54.341Z,26.00
2022-08-25T17:52:25.609Z,25.90
2022-08-25T17:54:52.885Z,25.80
2022-08-25T17:57:19.857Z,25.70
2022-08-25T17:59:48.179Z,25.60
2022-08-25T18:02:15.056Z,25.50
2022-08-25T18:04:42.235Z,25.40
2022-08-25T18:07:10.140Z,25.40
2022-08-25T18:09:36.911Z,25.30
2022-08-25T18:12:04.286Z,25.20
2022-08-25T18:14:31.127Z,25.10
2022-08-25T18:16:57.939Z,25.10
2022-08-25T18:19:24.675Z,25.00
2022-08-25T18:21:52.526Z,25.00
2022-08-25T18:24:19.451Z,24.90
2022-08-25T18:26:46.952Z,24.80
2022-08-25T18:29:14.003Z,24.70
2022-08-25T18:31:44.438Z,24.70
2022-08-25T18:34:11.703Z,24.60
2022-08-25T18:36:40.625Z,24.50
2022-08-25T18:39:25.863Z,24.40
2022-08-25T18:41:52.592Z,24.40
2022-08-25T18:44:19.961Z,24.30
2022-08-25T18:46:46.846Z,24.20
2022-08-25T18:49:18.378Z,24.20
2022-08-25T18:51:46.734Z,24.10
2022-08-25T18:54:22.776Z,24.10
2022-08-25T18:56:54.311Z,24.00
2022-08-25T18:59:23.518Z,24.00
2022-08-25T19:01:51.724Z,23.90
2022-08-25T19:04:18.515Z,23.90
2022-08-25T19:06:45.289Z,23.80
2022-08-25T19:09:12.062Z,23.80
2022-08-25T19:11:39.003Z,23.70
2022-08-25T19:14:12.019Z,23.70
2022-08-25T19:16:42.324Z,23.60
2022-08-25T19:19:12.992Z,23.60
2022-08-25T19:21:43.690Z,23.50
2022-08-25T19:24:12.208Z,23.50
2022-08-25T19:26:39.621Z,23.50
2022-08-25T19:29:12.444Z,23.40
2022-08-25T19:31:40.781Z,23.40
2022-08-25T19:34:11.571Z,23.40
2022-08-25T19:36:38.620Z,23.40
2022-08-25T19:39:08.048Z,23.40
2022-08-25T19:41:35.464Z,23.30
2022-08-25T19:44:03.748Z,23.30
2022-08-25T19:46:35.334Z,23.30
2022-08-25T19:49:08.374Z,23.20
2022-08-25T19:51:43.889Z,23.10
2022-08-25T19:54:15.305Z,23.10
2022-08-25T19:56:43.606Z,23.10
2022-08-25T19:59:23.359Z,23.00
2022-08-25T20:01:50.383Z,23.00
2022-08-25T20:04:17.264Z,23.00
2022-08-25T20:06:48.333Z,23.00
2022-08-25T20:09:20.793Z,22.90
2022-08-25T20:12:03.548Z,23.00
2022-08-25T20:14:34.060Z,23.00
2022-08-25T20:17:02.228Z,23.00
2022-08-25T20:19:31.809Z,22.90
2022-08-25T20:21:58.968Z,22.90
2022-08-25T20:24:44.318Z,22.80
2022-08-25T20:27:11.897Z,22.80
2022-08-25T20:29:38.760Z,22.80
2022-08-25T20:32:05.881Z,22.80
2022-08-25T20:34:33.098Z,22.80
2022-08-25T20:37:00.838Z,22.80
2022-08-25T20:39:27.794Z,22.80
2022-08-25T20:41:54.926Z,22.70
2022-08-25T20:44:23.368Z,22.70
2022-08-25T20:46:51.682Z,22.70
2022-08-25T20:49:21.541Z,22.70
2022-08-25T20:51:48.333Z,22.70
2022-08-25T20:54:18.915Z,22.60
2022-08-25T20:56:45.923Z,22.70
2022-08-25T20:59:13.813Z,22.60
2022-08-25T21:01:42.365Z,22.60
2022-08-25T21:04:14.291Z,22.50
2022-08-25T21:06:42.780Z,22.50
2022-08-25T21:09:15.673Z,22.40
2022-08-25T21:11:44.151Z,22.40
2022-08-25T21:14:12.281Z,22.30
2022-08-25T21:16:41.108Z,22.30
2022-08-25T21:19:10.982Z,22.20
2022-08-25T21:21:39.026Z,22.20
2022-08-25T21:24:09.815Z,22.10
2022-08-25T21:26:37.355Z,22.10
2022-08-25T21:29:15.324Z,22.00
2022-08-25T21:31:42.712Z,22.00
2022-08-25T21:34:11.653Z,21.90
2022-08-25T21:36:38.939Z,21.80
2022-08-25T21:39:06.165Z,21.80
2022-08-25T21:41:35.627Z,21.80
2022-08-25T21:44:04.529Z,21.70
2022-08-25T21:46:33.653Z,21.70
2022-08-25T21:49:06.212Z,21.60
2022-08-25T21:51:43.349Z,21.50
2022-08-25T21:54:13.968Z,21.50
2022-08-25T21:56:42.520Z,21.50
2022-08-25T21:59:13.485Z,21.40
2022-08-25T22:01:41.477Z,21.40
2022-08-25T22:04:10.262Z,21.40
2022-08-25T22:06:38.916Z,21.30
2022-08-25T22:09:08.325Z,21.30
2022-08-25T22:11:36.150Z,21.30
2022-08-25T22:14:03.743Z,21.20
2022-08-25T22:16:33.047Z,21.20
2022-08-25T22:19:00.851Z,21.20
2022-08-25T22:21:28.178Z,21.20
2022-08-25T22:23:58.327Z,21.10
2022-08-25T22:26:29.143Z,21.10
2022-08-25T22:28:58.363Z,21.10
2022-08-25T22:31:27.417Z,21.10
2022-08-25T22:33:57.732Z,21.10
2022-08-25T22:36:30.969Z,21.10
2022-08-25T22:38:59.141Z,21.10
2022-08-25T22:41:28.263Z,21.10
2022-08-25T22:43:56.690Z,21.00
2022-08-25T22:46:27.945Z,20.90
2022-08-25T22:48:55.887Z,20.80
2022-08-25T22:51:30.344Z,20.80
2022-08-25T22:53:59.924Z,20.80
2022-08-25T22:56:30.950Z,20.80
2022-08-25T22:58:59.905Z,20.80
2022-08-25T23:01:27.208Z,20.70
2022-08-25T23:03:54.470Z,20.60
2022-08-25T23:06:25.115Z,20.60
2022-08-25T23:08:54.059Z,20.60
2022-08-25T23:11:23.266Z,20.50
2022-08-25T23:13:50.378Z,20.50
2022-08-25T23:16:17.786Z,20.50
2022-08-25T23:18:46.961Z,20.40
2022-08-25T23:21:38.207Z,20.40
2022-08-25T23:24:09.097Z,20.40
2022-08-25T23:26:42.459Z,20.40
2022-08-25T23:29:17.883Z,20.30
2022-08-25T23:31:47.696Z,20.40
2022-08-25T23:34:16.483Z,20.30
2022-08-25T23:36:46.809Z,20.20
2022-08-25T23:39:13.811Z,20.20
2022-08-25T23:41:41.649Z,20.20
2022-08-25T23:44:11.925Z,20.20
2022-08-25T23:46:45.205Z,20.10
2022-08-25T23:49:14.685Z,20.10
2022-08-25T23:51:48.098Z,20.00
2022-08-25T23:54:16.412Z,20.00
2022-08-25T23:56:52.029Z,20.00
2022-08-25T23:59:24.552Z,20.00
